createdAt,value
2019-04-20T00:02:18.889Z,47.52
2019-04-20T00:04:49.475Z,47.38
2019-04-20T00:07:24.582Z,47.37
2019-04-20T00:10:06.266Z,47.29
2019-04-20T00:12:44.201Z,47.64
2019-04-20T00:15:07.216Z,47.75
2019-04-20T00:17:47.695Z,47.53
2019-04-20T00:20:20.722Z,47.64
2019-04-20T00:22:53.264Z,48.33
2019-04-20T00:25:41.705Z,48.15
2019-04-20T00:28:25.430Z,48.49
2019-04-20T00:31:04.155Z,48.79
2019-04-20T00:33:27.013Z,48.83
2019-04-20T00:35:48.566Z,49.06
2019-04-20T00:38:22.742Z,49.67
2019-04-20T00:41:00.060Z,49.84
2019-04-20T00:43:32.904Z,49.51
2019-04-20T00:46:08.259Z,49.96
2019-04-20T00:48:48.676Z,50.08
2019-04-20T00:51:32.678Z,50.24
2019-04-20T00:53:51.223Z,50.81
2019-04-20T00:56:22.370Z,51.11
2019-04-20T00:59:09.238Z,51.15
2019-04-20T01:01:50.169Z,51.14
2019-04-20T01:04:20.241Z,51.55
2019-04-20T01:07:06.066Z,51.30
2019-04-20T01:09:47.766Z,51.18
2019-04-20T01:12:26.034Z,51.39
2019-04-20T01:15:01.074Z,51.58
2019-04-20T01:17:31.897Z,51.88
2019-04-20T01:20:08.159Z,51.83
2019-04-20T01:22:48.191Z,52.41
2019-04-20T01:25:24.249Z,52.73
2019-04-20T01:28:09.080Z,52.68
2019-04-20T01:30:34.016Z,52.79
2019-04-20T01:33:16.364Z,53.07
2019-04-20T01:35:51.606Z,52.95
2019-04-20T01:38:29.606Z,53.29
2019-04-20T01:40:46.327Z,53.26
2019-04-20T01:43:20.482Z,53.56
2019-04-20T01:46:01.401Z,53.68
2019-04-20T01:48:33.661Z,53.83
2019-04-20T01:51:07.274Z,54.31
2019-04-20T01:54:03.911Z,55.08
2019-04-20T01:56:37.403Z,55.30
2019-04-20T01:59:24.176Z,55.21
2019-04-20T02:01:46.831Z,55.29
2019-04-20T02:04:33.939Z,55.30
2019-04-20T02:07:03.834Z,55.41
2019-04-20T02:09:43.279Z,55.15
2019-04-20T02:12:15.446Z,55.22
2019-04-20T02:14:51.799Z,55.30
2019-04-20T02:17:28.372Z,55.00
2019-04-20T02:20:10.480Z,55.11
2019-04-20T02:22:47.668Z,54.90
2019-04-20T02:25:03.824Z,54.99
2019-04-20T02:27:43.263Z,54.66
2019-04-20T02:30:51.743Z,55.04
2019-04-20T02:33:32.250Z,54.72
2019-04-20T02:36:04.836Z,54.10
2019-04-20T02:38:48.905Z,54.26
2019-04-20T02:41:09.875Z,53.84
2019-04-20T02:46:14.830Z,53.50
2019-04-20T02:49:05.439Z,53.79
2019-04-20T02:51:23.555Z,53.32
2019-04-20T02:54:11.455Z,53.12
2019-04-20T02:56:45.262Z,53.55
2019-04-20T02:59:32.944Z,54.16
2019-04-20T03:01:36.046Z,54.34
2019-04-20T03:03:54.597Z,54.37
2019-04-20T03:06:36.569Z,54.27
2019-04-20T03:09:22.482Z,54.51
2019-04-20T03:14:24.018Z,54.47
2019-04-20T03:17:08.736Z,54.49
2019-04-20T03:19:29.984Z,54.75
2019-04-20T03:22:19.194Z,54.56
2019-04-20T03:24:50.040Z,55.36
2019-04-20T03:27:20.910Z,55.50
2019-04-20T03:30:40.258Z,55.13
2019-04-20T03:35:29.880Z,55.20
2019-04-20T03:38:00.170Z,55.29
2019-04-20T03:40:24.452Z,55.16
2019-04-20T03:42:46.535Z,55.50
2019-04-20T03:45:22.663Z,55.71
2019-04-20T03:48:06.147Z,55.06
2019-04-20T03:50:49.202Z,54.70
2019-04-20T03:53:22.976Z,54.08
2019-04-20T03:55:56.414Z,54.01
2019-04-20T03:58:37.850Z,54.14
2019-04-20T04:01:43.091Z,53.61
2019-04-20T04:04:05.185Z,53.63
2019-04-20T04:06:29.561Z,52.89
2019-04-20T04:09:10.114Z,51.99
2019-04-20T04:11:48.952Z,52.19
2019-04-20T04:14:07.107Z,51.72
2019-04-20T04:16:45.775Z,51.72
2019-04-20T04:19:21.521Z,52.03
2019-04-20T04:22:04.177Z,51.71
2019-04-20T04:24:31.603Z,51.72
2019-04-20T04:27:09.270Z,51.49
2019-04-20T04:29:52.379Z,51.57
2019-04-20T04:32:46.931Z,51.57
2019-04-20T04:35:09.220Z,51.42
2019-04-20T04:37:45.910Z,50.77
2019-04-20T04:40:31.702Z,51.02
2019-04-20T04:42:58.428Z,50.67
2019-04-20T04:45:14.510Z,50.41
2019-04-20T04:47:47.333Z,51.07
2019-04-20T04:50:24.890Z,51.83
2019-04-20T04:53:04.502Z,51.22
2019-04-20T04:55:42.945Z,50.59
2019-04-20T04:58:04.492Z,50.34
2019-04-20T05:00:38.840Z,49.76
2019-04-20T05:03:28.495Z,50.02
2019-04-20T05:06:06.562Z,50.73
2019-04-20T05:08:31.720Z,50.12
2019-04-20T05:11:01.005Z,49.39
2019-04-20T05:13:43.924Z,50.08
2019-04-20T05:16:27.628Z,50.41
2019-04-20T05:19:11.915Z,50.75
2019-04-20T05:22:01.314Z,50.62
2019-04-20T05:24:33.808Z,52.13
2019-04-20T05:27:17.702Z,48.95
2019-04-20T05:29:32.455Z,46.71
2019-04-20T05:32:07.898Z,47.61
2019-04-20T05:34:58.165Z,47.41
2019-04-20T05:37:57.358Z,47.24
2019-04-20T05:40:13.979Z,46.74
2019-04-20T05:42:44.189Z,46.52
2019-04-20T05:45:16.676Z,46.62
2019-04-20T05:47:48.546Z,46.74
2019-04-20T05:50:27.625Z,46.38
2019-04-20T05:53:07.253Z,46.37
2019-04-20T05:55:40.031Z,46.55
2019-04-20T05:58:17.931Z,46.74
2019-04-20T06:00:56.803Z,47.07
2019-04-20T06:03:23.346Z,46.70
2019-04-20T06:06:05.125Z,46.75
2019-04-20T06:11:09.339Z,45.87
2019-04-20T06:13:34.792Z,44.93
2019-04-20T06:16:18.677Z,44.61
2019-04-20T06:18:58.220Z,44.94
2019-04-20T06:21:52.888Z,43.73
2019-04-20T06:24:36.310Z,44.15
2019-04-20T06:27:16.109Z,43.27
2019-04-20T06:29:38.067Z,41.81
2019-04-20T06:32:17.394Z,42.66
2019-04-20T06:34:50.094Z,41.22
2019-04-20T06:37:21.318Z,42.15
2019-04-20T06:39:59.083Z,41.03
2019-04-20T06:42:23.481Z,40.30
2019-04-20T06:45:07.064Z,41.44
2019-04-20T06:47:39.314Z,38.48
2019-04-20T06:50:12.858Z,39.81
2019-04-20T06:53:01.916Z,39.38
2019-04-20T06:55:42.973Z,38.68
2019-04-20T06:58:28.028Z,38.41
2019-04-20T07:00:53.441Z,36.82
2019-04-20T07:06:19.483Z,35.56
2019-04-20T07:11:04.354Z,34.87
2019-04-20T07:13:29.778Z,34.68
2019-04-20T07:16:21.635Z,33.00
2019-04-20T07:19:07.644Z,33.04
2019-04-20T07:22:01.881Z,33.73
2019-04-20T07:24:38.467Z,32.76
2019-04-20T07:27:03.960Z,32.72
2019-04-20T07:29:41.114Z,32.08
2019-04-20T07:32:07.621Z,32.58
2019-04-20T07:34:51.327Z,31.67
2019-04-20T07:37:46.637Z,30.62
2019-04-20T07:40:02.676Z,31.82
2019-04-20T07:42:34.833Z,29.64
2019-04-20T07:45:16.433Z,30.37
2019-04-20T07:47:46.591Z,30.00
2019-04-20T07:50:12.910Z,29.66
2019-04-20T07:52:42.877Z,28.35
2019-04-20T07:57:55.026Z,26.24
2019-04-20T08:00:48.440Z,27.83
2019-04-20T08:03:24.693Z,27.58
2019-04-20T08:05:46.776Z,25.39
2019-04-20T08:08:37.699Z,26.73
2019-04-20T08:11:00.754Z,27.04
2019-04-20T08:13:49.030Z,26.71
2019-04-20T08:16:25.834Z,25.61
2019-04-20T08:18:55.761Z,25.12
2019-04-20T08:21:29.395Z,27.12
2019-04-20T08:24:02.604Z,25.84
2019-04-20T08:26:23.102Z,26.60
2019-04-20T08:29:01.550Z,26.33
2019-04-20T08:31:47.373Z,25.61
2019-04-20T08:37:05.948Z,25.74
2019-04-20T08:39:55.541Z,26.57
2019-04-20T08:42:16.214Z,25.28
2019-04-20T08:45:03.608Z,25.78
2019-04-20T08:47:37.938Z,24.75
2019-04-20T08:55:29.906Z,25.70
2019-04-20T08:57:45.132Z,23.22
2019-04-20T09:00:28.867Z,22.20
2019-04-20T09:03:07.892Z,23.35
2019-04-20T09:05:47.645Z,23.36
2019-04-20T09:08:16.127Z,22.11
2019-04-20T09:10:59.815Z,23.88
2019-04-20T09:13:40.781Z,23.50
2019-04-20T09:16:13.128Z,23.17
2019-04-20T09:18:57.898Z,23.94
2019-04-20T09:21:51.027Z,22.20
2019-04-20T09:24:52.797Z,21.71
2019-04-20T09:27:21.876Z,22.56
2019-04-20T09:33:14.530Z,23.99
2019-04-20T09:35:47.364Z,21.45
2019-04-20T09:38:29.993Z,20.96
2019-04-20T09:41:09.115Z,20.40
2019-04-20T09:43:30.412Z,20.86
2019-04-20T09:46:06.677Z,21.11
2019-04-20T09:48:42.647Z,20.86
2019-04-20T09:51:30.762Z,21.33
2019-04-20T09:54:12.513Z,20.80
2019-04-20T09:57:09.179Z,20.45
2019-04-20T09:59:57.465Z,20.30
2019-04-20T10:02:31.023Z,21.73
2019-04-20T10:05:17.759Z,20.30
2019-04-20T10:08:06.749Z,18.65
2019-04-20T10:10:41.718Z,20.52
2019-04-20T10:13:15.392Z,19.12
2019-04-20T10:15:59.692Z,20.36
2019-04-20T10:18:45.475Z,19.40
2019-04-20T10:21:23.713Z,20.95
2019-04-20T10:27:08.275Z,21.46
2019-04-20T10:29:47.581Z,19.96
2019-04-20T10:32:37.703Z,19.81
2019-04-20T10:35:23.338Z,20.29
2019-04-20T10:38:11.464Z,18.05
2019-04-20T10:41:04.987Z,21.10
2019-04-20T10:43:49.018Z,21.12
2019-04-20T10:46:31.155Z,19.67
2019-04-20T10:49:13.645Z,20.34
2019-04-20T10:51:51.361Z,21.10
2019-04-20T10:54:24.729Z,19.99
2019-04-20T10:56:57.792Z,17.56
2019-04-20T10:59:31.755Z,20.08
2019-04-20T11:02:05.801Z,18.94
2019-04-20T11:04:38.815Z,19.34
2019-04-20T11:07:12.516Z,19.03
2019-04-20T11:09:46.979Z,16.83
2019-04-20T11:12:20.134Z,17.31
2019-04-20T11:14:54.209Z,19.09
2019-04-20T11:17:29.787Z,18.73
2019-04-20T11:20:01.550Z,18.57
2019-04-20T11:22:34.738Z,18.76
2019-04-20T11:25:08.379Z,18.62
2019-04-20T11:27:40.906Z,20.15
2019-04-20T11:30:16.127Z,19.76
2019-04-20T11:32:49.669Z,19.00
2019-04-20T11:35:27.786Z,18.46
2019-04-20T11:37:57.461Z,18.38
2019-04-20T11:40:30.824Z,16.77
2019-04-20T11:43:03.943Z,18.25
2019-04-20T11:45:36.813Z,17.84
2019-04-20T11:48:09.635Z,17.73
2019-04-20T11:50:43.378Z,18.38
2019-04-20T11:53:17.471Z,17.74
2019-04-20T11:55:52.126Z,17.34
2019-04-20T11:58:26.100Z,16.70
2019-04-20T12:01:08.532Z,16.79
2019-04-20T12:03:47.825Z,17.58
2019-04-20T12:06:10.492Z,17.89
2019-04-20T12:08:44.323Z,16.79
2019-04-20T12:11:26.496Z,18.39
2019-04-20T12:13:54.519Z,16.84
2019-04-20T12:16:27.819Z,17.07
2019-04-20T12:19:02.316Z,14.80
2019-04-20T12:21:35.008Z,17.16
2019-04-20T12:24:07.707Z,14.85
2019-04-20T12:26:40.612Z,17.22
2019-04-20T12:29:16.211Z,17.34
2019-04-20T12:31:51.101Z,16.59
2019-04-20T12:34:24.555Z,14.69
2019-04-20T12:36:58.412Z,15.74
2019-04-20T12:39:31.354Z,16.23
2019-04-20T12:42:08.128Z,14.32
2019-04-20T12:44:41.818Z,15.84
2019-04-20T12:47:14.595Z,15.45
2019-04-20T12:49:47.586Z,16.27
2019-04-20T12:52:20.726Z,15.74
2019-04-20T12:54:54.487Z,16.94
2019-04-20T12:57:28.874Z,17.16
2019-04-20T13:00:03.566Z,15.30
2019-04-20T13:02:37.551Z,15.89
2019-04-20T13:05:11.546Z,15.31
2019-04-20T13:07:49.314Z,14.58
2019-04-20T13:10:21.433Z,14.23
2019-04-20T13:13:04.950Z,15.38
2019-04-20T13:15:44.593Z,15.13
2019-04-20T13:18:23.329Z,16.11
2019-04-20T13:20:58.166Z,17.01
2019-04-20T13:23:31.076Z,16.52
2019-04-20T13:26:05.862Z,16.83
2019-04-20T13:28:39.062Z,15.69
2019-04-20T13:31:11.933Z,14.84
2019-04-20T13:33:45.322Z,15.07
2019-04-20T13:36:18.215Z,15.43
2019-04-20T13:38:51.934Z,15.92
2019-04-20T13:41:25.035Z,15.17
2019-04-20T13:44:00.104Z,14.52
2019-04-20T13:46:33.339Z,15.27
2019-04-20T13:49:07.092Z,15.76
2019-04-20T13:51:40.961Z,15.17
2019-04-20T13:54:17.992Z,15.08
2019-04-20T13:56:50.445Z,15.08
2019-04-20T13:59:35.167Z,15.11
2019-04-20T14:02:12.967Z,15.82
2019-04-20T14:04:56.992Z,15.82
2019-04-20T14:07:31.400Z,15.48
2019-04-20T14:10:05.868Z,15.30
2019-04-20T14:12:50.399Z,16.54
2019-04-20T14:15:13.647Z,15.34
2019-04-20T14:17:46.940Z,15.34
2019-04-20T14:20:22.153Z,16.51
2019-04-20T14:22:55.197Z,17.18
2019-04-20T14:25:29.005Z,18.44
2019-04-20T14:28:02.832Z,18.27
2019-04-20T14:30:38.013Z,16.90
2019-04-20T14:33:10.702Z,17.54
2019-04-20T14:35:43.373Z,15.99
2019-04-20T14:38:16.058Z,17.02
2019-04-20T14:40:50.414Z,18.10
2019-04-20T14:43:24.918Z,16.61
2019-04-20T14:45:58.806Z,16.14
2019-04-20T14:48:34.467Z,15.79
2019-04-20T14:51:08.048Z,15.83
2019-04-20T14:53:41.470Z,16.17
2019-04-20T14:56:15.366Z,16.21
2019-04-20T14:58:51.360Z,15.78
2019-04-20T15:01:28.203Z,16.80
2019-04-20T15:04:06.762Z,16.04
2019-04-20T15:06:38.555Z,16.19
2019-04-20T15:09:11.046Z,15.63
2019-04-20T15:11:45.143Z,17.90
2019-04-20T15:14:18.706Z,16.36
2019-04-20T15:16:52.856Z,16.48
2019-04-20T15:19:33.640Z,16.93
2019-04-20T15:22:09.375Z,18.51
2019-04-20T15:24:42.377Z,16.90
2019-04-20T15:27:16.251Z,18.07
2019-04-20T15:29:50.486Z,18.47
2019-04-20T15:32:23.077Z,18.64
2019-04-20T15:34:57.087Z,18.55
2019-04-20T15:37:30.948Z,19.56
2019-04-20T15:40:06.446Z,20.14
2019-04-20T15:42:53.735Z,20.32
2019-04-20T15:45:15.685Z,19.67
2019-04-20T15:47:49.973Z,19.15
2019-04-20T15:50:23.604Z,19.71
2019-04-20T15:53:00.049Z,20.67
2019-04-20T15:55:37.553Z,21.14
2019-04-20T15:58:08.433Z,20.85
2019-04-20T16:00:42.540Z,19.85
2019-04-20T16:03:23.330Z,21.68
2019-04-20T16:06:01.322Z,21.66
2019-04-20T16:08:36.721Z,22.28
2019-04-20T16:11:11.225Z,20.86
2019-04-20T16:13:49.459Z,21.44
2019-04-20T16:16:19.638Z,21.74
2019-04-20T16:18:52.864Z,21.99
2019-04-20T16:21:28.467Z,22.13
2019-04-20T16:24:04.617Z,22.93
2019-04-20T16:26:49.469Z,22.45
2019-04-20T16:29:17.818Z,22.87
2019-04-20T16:31:52.554Z,23.38
2019-04-20T16:34:25.431Z,23.67
2019-04-20T16:37:02.433Z,24.05
2019-04-20T16:39:36.840Z,24.57
2019-04-20T16:42:12.022Z,24.97
2019-04-20T16:44:47.216Z,24.96
2019-04-20T16:47:20.122Z,25.43
2019-04-20T16:49:55.056Z,25.73
2019-04-20T16:52:30.654Z,26.24
2019-04-20T16:55:04.141Z,26.80
2019-04-20T16:57:37.682Z,26.08
2019-04-20T17:00:11.502Z,26.30
2019-04-20T17:02:46.114Z,27.04
2019-04-20T17:05:19.500Z,26.15
2019-04-20T17:08:00.893Z,26.18
2019-04-20T17:14:27.565Z,26.44
2019-04-20T17:17:49.540Z,26.79
2019-04-20T17:20:34.720Z,26.20
2019-04-20T17:23:17.164Z,26.00
2019-04-20T17:26:03.935Z,26.58
2019-04-20T17:32:33.577Z,25.03
2019-04-20T17:35:55.193Z,25.91
2019-04-20T17:45:07.711Z,26.95
2019-04-20T17:51:22.439Z,28.53
2019-04-20T17:57:19.428Z,28.94
2019-04-20T18:04:05.464Z,30.15
2019-04-20T18:06:43.689Z,30.09
2019-04-20T18:09:34.521Z,31.25
2019-04-20T18:15:06.183Z,32.17
2019-04-20T18:17:58.799Z,33.14
2019-04-20T18:20:38.977Z,35.43
2019-04-20T18:23:24.826Z,34.60
2019-04-20T18:26:11.044Z,34.11
2019-04-20T18:28:56.152Z,34.83
2019-04-20T18:31:13.497Z,36.27
2019-04-20T18:33:51.653Z,36.89
2019-04-20T18:36:38.288Z,36.74
2019-04-20T18:39:38.025Z,36.19
2019-04-20T18:42:27.206Z,37.16
2019-04-20T18:48:15.870Z,37.53
2019-04-20T18:50:35.394Z,38.81
2019-04-20T18:53:05.592Z,38.43
2019-04-20T18:55:45.918Z,38.92
2019-04-20T18:58:15.260Z,37.82
2019-04-20T19:00:51.861Z,38.36
2019-04-20T19:03:29.944Z,38.16
2019-04-20T19:06:02.038Z,38.89
2019-04-20T19:08:40.422Z,39.55
2019-04-20T19:11:16.505Z,40.30
2019-04-20T19:13:51.233Z,41.00
2019-04-20T19:16:46.759Z,41.54
2019-04-20T19:19:27.030Z,41.91
2019-04-20T19:21:54.166Z,42.07
2019-04-20T19:24:29.713Z,43.48
2019-04-20T19:27:08.062Z,45.01
2019-04-20T19:29:44.829Z,44.12
2019-04-20T19:32:34.144Z,44.79
2019-04-20T19:34:57.490Z,44.54
2019-04-20T19:37:28.502Z,39.19
2019-04-20T19:40:10.794Z,41.76
2019-04-20T19:42:45.197Z,42.12
2019-04-20T19:45:37.498Z,42.21
2019-04-20T19:48:04.706Z,42.11
2019-04-20T19:50:44.182Z,42.84
2019-04-20T19:53:22.724Z,43.48
2019-04-20T19:55:48.037Z,43.34
2019-04-20T19:58:25.254Z,43.61
2019-04-20T20:00:59.577Z,44.00
2019-04-20T20:03:39.590Z,43.67
2019-04-20T20:06:22.512Z,43.65
2019-04-20T20:08:56.001Z,43.62
2019-04-20T20:11:29.894Z,44.19
2019-04-20T20:13:58.464Z,43.92
2019-04-20T20:16:50.463Z,44.39
2019-04-20T20:19:12.097Z,44.74
2019-04-20T20:21:55.502Z,44.48
2019-04-20T20:24:17.454Z,45.18
2019-04-20T20:26:56.704Z,45.08
2019-04-20T20:29:34.255Z,45.33
2019-04-20T20:32:10.365Z,45.70
2019-04-20T20:34:40.463Z,45.69
2019-04-20T20:37:23.733Z,45.33
2019-04-20T20:39:58.465Z,45.50
2019-04-20T20:42:32.942Z,45.95
2019-04-20T20:45:14.305Z,46.03
2019-04-20T20:47:55.076Z,46.11
2019-04-20T20:50:33.765Z,46.15
2019-04-20T20:52:58.689Z,46.05
2019-04-20T20:55:32.201Z,45.68
2019-04-20T20:58:01.941Z,46.09
2019-04-20T21:00:41.158Z,46.15
2019-04-20T21:03:07.438Z,46.40
2019-04-20T21:05:38.233Z,46.68
2019-04-20T21:08:13.775Z,46.55
2019-04-20T21:10:48.089Z,46.86
2019-04-20T21:13:21.471Z,47.27
2019-04-20T21:16:02.841Z,47.61
2019-04-20T21:18:49.003Z,47.41
2019-04-20T21:21:17.682Z,47.70
2019-04-20T21:23:48.125Z,48.01
2019-04-20T21:26:21.768Z,48.08
2019-04-20T21:28:48.017Z,48.20
2019-04-20T21:31:24.278Z,48.63
2019-04-20T21:33:57.211Z,48.54
2019-04-20T21:36:31.769Z,48.76
2019-04-20T21:39:08.681Z,48.80
2019-04-20T21:41:50.928Z,48.82
2019-04-20T21:44:25.057Z,49.02
2019-04-20T21:46:54.573Z,49.30
2019-04-20T21:49:39.944Z,49.38
2019-04-20T21:52:06.097Z,49.88
2019-04-20T21:54:36.036Z,49.69
2019-04-20T21:57:11.488Z,50.33
2019-04-20T21:59:50.522Z,50.39
2019-04-20T22:02:28.190Z,50.81
2019-04-20T22:04:57.638Z,50.46
2019-04-20T22:07:30.654Z,50.61
2019-04-20T22:10:04.978Z,50.86
2019-04-20T22:12:45.600Z,50.81
2019-04-20T22:15:22.465Z,50.51
2019-04-20T22:17:48.681Z,50.71
2019-04-20T22:20:32.520Z,51.02
2019-04-20T22:23:07.469Z,50.89
2019-04-20T22:25:50.467Z,50.95
2019-04-20T22:28:05.743Z,51.04
2019-04-20T22:30:39.915Z,51.12
2019-04-20T22:33:28.565Z,51.31
2019-04-20T22:36:02.175Z,51.88
2019-04-20T22:38:37.582Z,51.66
2019-04-20T22:41:13.880Z,51.68
2019-04-20T22:43:44.184Z,51.34
2019-04-20T22:46:23.708Z,51.60
2019-04-20T22:49:08.120Z,51.94
2019-04-20T22:51:39.943Z,52.37
2019-04-20T22:54:16.978Z,52.20
2019-04-20T22:56:50.914Z,52.26
2019-04-20T22:59:19.114Z,52.41
2019-04-20T23:01:56.179Z,52.85
2019-04-20T23:04:26.564Z,53.23
2019-04-20T23:07:00.928Z,53.18
2019-04-20T23:09:43.888Z,53.58
2019-04-20T23:12:13.406Z,53.43
2019-04-20T23:14:44.603Z,53.44
2019-04-20T23:17:24.387Z,54.46
2019-04-20T23:19:56.165Z,54.48
2019-04-20T23:22:35.979Z,54.28
2019-04-20T23:25:03.119Z,53.54
2019-04-20T23:27:38.720Z,53.37
2019-04-20T23:30:23.724Z,54.66
2019-04-20T23:32:47.593Z,55.37
2019-04-20T23:35:23.461Z,55.42
2019-04-20T23:38:06.820Z,55.24
2019-04-20T23:40:31.955Z,55.59
2019-04-20T23:43:28.170Z,56.52
2019-04-20T23:46:19.401Z,56.91
2019-04-20T23:48:52.098Z,57.71
2019-04-20T23:51:49.599Z,58.73
2019-04-20T23:54:10.208Z,58.58
2019-04-20T23:56:35.379Z,59.73
2019-04-20T23:59:08.970Z,59.78
